الصفحة الرئيسية
METAR-TAF:

METAR-TAF

مطار :

Laoag, الفلبين

دائرة عرض: 18-11N, خط طول: 120-32E, ارتفاع: 4 متر

مراقبة الطقس الحالي

تاريخ ووقت الإصدار 2ساعات و 0 دقيقة قبل الساعة 12:00UTC
ريح 6 عقدة من الجنوب/الجنوب الشرقي
درجة الحرارة 29°درجة مئوية
الرطوبة 66%
ضغط 1013 hPa
الرؤية 10 كم أو أكثر
غيوم قليلة على ارتفاع 1800 قدم
غيوم متفرقة على ارتفاع 29000 قدم

METAR: RPLI 101200Z 16006KT 9999 FEW018 SCT290 29/22 Q1013 NOSIG RMK A2991

زمن: 22:00 (14:00 UTC)

توقعات

تاريخ ووقت الإصدار 3ساعات و 0 دقيقة قبل الساعة 11:00UTC
التوقعات صالحة من10 الساعة 12 UTC إلى 11 الساعة 12 UTC
ريح 6 عقدة من الشمال/الشمال الشرقي
الرؤية 10 كم أو أكثر
غيوم قليلة على ارتفاع 1800 قدم
مؤقت
من 10 الساعة 12 UTC إلى 10 الساعة 18 UTC
ريح 4 عقدة من الشمال الشرقي
مؤقت
من 11 الساعة 03 UTC إلى 11 الساعة 09 UTC
ريح 10 عقدة من الشمال/الشمال الغربي
غيوم قليلة على ارتفاع 1700 قدم, مزنة ركامية.
غيوم متفرقة على ارتفاع 1800 قدم
غيوم مفككة على ارتفاع 29000 قدم

TAF: RPLI 101100Z 1012/1112 02006KT 9999 FEW018 TEMPO 1012/1018 04004KT TEMPO 1103/1109 34010KT FEW017CB SCT018 BKN290

أرصاد الطقس والتوقعات من أكثر من 4000 مطار (تقارير الطقس للمطار METAR والتنبؤ بالطقس بالمطارTAF).

المحطات المتاحة هي النقط الصفراء والحمراء على الخريطة.

حرك المؤشر فوق النقطة لمعرفة اسم المحطة.

ثم انقر لمعرفة أرصاد وتوقعات الطقس.

لتغيير الخارطة: اضغط على الأزرار الخضراء مع رمز الصليب الأسود للتكبير. على الزر الأخضر مع شرطة للتصغير، أو على الأسهم الخضراء للخرائط المجاورة.


METAR-TAF: